sensor_id;sensor_type;location;lat;lon;timestamp;P1;durP1;ratioP1;P2;durP2;ratioP2
15799;SDS011;8002;51.196;7.010;2024-02-14T00:02:13;3.30;;;1.90;;
15799;SDS011;8002;51.196;7.010;2024-02-14T00:04:40;5.17;;;2.30;;
15799;SDS011;8002;51.196;7.010;2024-02-14T00:07:06;2.20;;;1.63;;
15799;SDS011;8002;51.196;7.010;2024-02-14T00:09:34;3.77;;;2.00;;
15799;SDS011;8002;51.196;7.010;2024-02-14T00:12:00;3.13;;;2.10;;
15799;SDS011;8002;51.196;7.010;2024-02-14T00:14:26;2.77;;;2.10;;
15799;SDS011;8002;51.196;7.010;2024-02-14T00:16:53;4.60;;;2.93;;
15799;SDS011;8002;51.196;7.010;2024-02-14T00:19:19;3.53;;;2.07;;
15799;SDS011;8002;51.196;7.010;2024-02-14T00:21:47;4.23;;;2.10;;
15799;SDS011;8002;51.196;7.010;2024-02-14T00:24:13;3.13;;;1.70;;
15799;SDS011;8002;51.196;7.010;2024-02-14T00:26:42;2.37;;;1.90;;
15799;SDS011;8002;51.196;7.010;2024-02-14T00:29:08;2.93;;;1.80;;
15799;SDS011;8002;51.196;7.010;2024-02-14T00:31:34;3.53;;;1.80;;
15799;SDS011;8002;51.196;7.010;2024-02-14T00:34:01;3.67;;;2.03;;
15799;SDS011;8002;51.196;7.010;2024-02-14T00:36:27;2.53;;;1.97;;
15799;SDS011;8002;51.196;7.010;2024-02-14T00:38:53;3.47;;;1.77;;
15799;SDS011;8002;51.196;7.010;2024-02-14T00:41:20;2.43;;;1.97;;
15799;SDS011;8002;51.196;7.010;2024-02-14T00:43:48;4.03;;;2.33;;
15799;SDS011;8002;51.196;7.010;2024-02-14T00:46:15;3.17;;;1.90;;
15799;SDS011;8002;51.196;7.010;2024-02-14T00:48:41;2.67;;;2.47;;
15799;SDS011;8002;51.196;7.010;2024-02-14T00:51:09;2.73;;;2.03;;
15799;SDS011;8002;51.196;7.010;2024-02-14T00:53:36;5.13;;;2.30;;
15799;SDS011;8002;51.196;7.010;2024-02-14T00:56:02;3.63;;;2.50;;
15799;SDS011;8002;51.196;7.010;2024-02-14T00:58:28;3.17;;;1.67;;
15799;SDS011;8002;51.196;7.010;2024-02-14T01:00:56;2.50;;;1.90;;
15799;SDS011;8002;51.196;7.010;2024-02-14T01:03:22;2.30;;;1.77;;
15799;SDS011;8002;51.196;7.010;2024-02-14T01:05:49;2.27;;;1.87;;
15799;SDS011;8002;51.196;7.010;2024-02-14T01:08:15;1.97;;;1.53;;
15799;SDS011;8002;51.196;7.010;2024-02-14T01:10:42;3.67;;;1.90;;
15799;SDS011;8002;51.196;7.010;2024-02-14T01:13:08;2.10;;;1.90;;
15799;SDS011;8002;51.196;7.010;2024-02-14T01:15:35;2.00;;;1.53;;
15799;SDS011;8002;51.196;7.010;2024-02-14T01:18:02;3.87;;;1.90;;
15799;SDS011;8002;51.196;7.010;2024-02-14T01:20:28;3.43;;;2.17;;
15799;SDS011;8002;51.196;7.010;2024-02-14T01:22:55;3.27;;;1.70;;
15799;SDS011;8002;51.196;7.010;2024-02-14T01:25:21;2.57;;;1.87;;
15799;SDS011;8002;51.196;7.010;2024-02-14T01:27:47;2.10;;;1.80;;
15799;SDS011;8002;51.196;7.010;2024-02-14T01:30:14;3.03;;;1.80;;
15799;SDS011;8002;51.196;7.010;2024-02-14T01:32:41;4.23;;;1.93;;
15799;SDS011;8002;51.196;7.010;2024-02-14T01:35:09;2.50;;;1.70;;
15799;SDS011;8002;51.196;7.010;2024-02-14T01:37:35;3.27;;;1.83;;
15799;SDS011;8002;51.196;7.010;2024-02-14T01:40:02;3.17;;;1.70;;
15799;SDS011;8002;51.196;7.010;2024-02-14T01:42:28;1.77;;;1.60;;
15799;SDS011;8002;51.196;7.010;2024-02-14T01:44:54;2.63;;;1.77;;
15799;SDS011;8002;51.196;7.010;2024-02-14T01:47:21;2.43;;;1.67;;
15799;SDS011;8002;51.196;7.010;2024-02-14T01:49:47;2.07;;;1.60;;
15799;SDS011;8002;51.196;7.010;2024-02-14T01:52:15;2.47;;;1.80;;
15799;SDS011;8002;51.196;7.010;2024-02-14T01:54:41;2.10;;;1.90;;
15799;SDS011;8002;51.196;7.010;2024-02-14T01:57:08;2.17;;;1.50;;
15799;SDS011;8002;51.196;7.010;2024-02-14T01:59:35;3.60;;;1.60;;
15799;SDS011;8002;51.196;7.010;2024-02-14T02:02:02;2.97;;;1.53;;
15799;SDS011;8002;51.196;7.010;2024-02-14T02:04:28;1.63;;;1.53;;
15799;SDS011;8002;51.196;7.010;2024-02-14T02:06:55;3.37;;;1.60;;
15799;SDS011;8002;51.196;7.010;2024-02-14T02:09:23;1.50;;;1.40;;
15799;SDS011;8002;51.196;7.010;2024-02-14T02:11:49;1.53;;;1.37;;
15799;SDS011;8002;51.196;7.010;2024-02-14T02:14:16;2.83;;;1.60;;
15799;SDS011;8002;51.196;7.010;2024-02-14T02:16:43;2.70;;;1.30;;
15799;SDS011;8002;51.196;7.010;2024-02-14T02:19:09;1.80;;;1.00;;
15799;SDS011;8002;51.196;7.010;2024-02-14T02:21:35;2.77;;;1.70;;
15799;SDS011;8002;51.196;7.010;2024-02-14T02:24:03;2.10;;;1.43;;
15799;SDS011;8002;51.196;7.010;2024-02-14T02:26:30;0.97;;;0.90;;
15799;SDS011;8002;51.196;7.010;2024-02-14T02:28:56;5.00;;;1.27;;
15799;SDS011;8002;51.196;7.010;2024-02-14T02:31:22;2.33;;;1.40;;
15799;SDS011;8002;51.196;7.010;2024-02-14T02:33:49;1.30;;;1.20;;
15799;SDS011;8002;51.196;7.010;2024-02-14T02:36:16;1.73;;;1.30;;
15799;SDS011;8002;51.196;7.010;2024-02-14T02:38:42;1.33;;;1.00;;
15799;SDS011;8002;51.196;7.010;2024-02-14T02:41:10;1.30;;;1.00;;
15799;SDS011;8002;51.196;7.010;2024-02-14T02:43:36;2.37;;;1.23;;
15799;SDS011;8002;51.196;7.010;2024-02-14T02:46:03;1.37;;;1.00;;
15799;SDS011;8002;51.196;7.010;2024-02-14T02:48:29;1.63;;;1.20;;
15799;SDS011;8002;51.196;7.010;2024-02-14T02:50:56;3.07;;;1.20;;
15799;SDS011;8002;51.196;7.010;2024-02-14T02:53:23;1.43;;;1.10;;
15799;SDS011;8002;51.196;7.010;2024-02-14T02:55:49;1.10;;;1.00;;
15799;SDS011;8002;51.196;7.010;2024-02-14T02:58:20;3.03;;;1.03;;
15799;SDS011;8002;51.196;7.010;2024-02-14T03:00:47;3.17;;;1.23;;
15799;SDS011;8002;51.196;7.010;2024-02-14T03:03:14;1.97;;;1.20;;
15799;SDS011;8002;51.196;7.010;2024-02-14T03:05:41;1.23;;;1.07;;
15799;SDS011;8002;51.196;7.010;2024-02-14T03:08:09;1.47;;;1.13;;
15799;SDS011;8002;51.196;7.010;2024-02-14T03:10:38;2.97;;;1.13;;
15799;SDS011;8002;51.196;7.010;2024-02-14T03:13:05;1.70;;;1.03;;
15799;SDS011;8002;51.196;7.010;2024-02-14T03:15:34;1.40;;;0.90;;
15799;SDS011;8002;51.196;7.010;2024-02-14T03:18:01;1.50;;;1.40;;
15799;SDS011;8002;51.196;7.010;2024-02-14T03:20:30;1.47;;;1.00;;
15799;SDS011;8002;51.196;7.010;2024-02-14T03:22:57;2.40;;;1.10;;
15799;SDS011;8002;51.196;7.010;2024-02-14T03:25:23;2.43;;;1.60;;
15799;SDS011;8002;51.196;7.010;2024-02-14T03:27:49;2.20;;;1.10;;
15799;SDS011;8002;51.196;7.010;2024-02-14T03:30:18;1.13;;;1.03;;
15799;SDS011;8002;51.196;7.010;2024-02-14T03:32:46;1.53;;;1.33;;
15799;SDS011;8002;51.196;7.010;2024-02-14T03:35:12;2.10;;;1.30;;
15799;SDS011;8002;51.196;7.010;2024-02-14T03:37:39;1.33;;;1.03;;
15799;SDS011;8002;51.196;7.010;2024-02-14T03:40:07;1.90;;;1.23;;
15799;SDS011;8002;51.196;7.010;2024-02-14T03:42:33;1.43;;;1.20;;
15799;SDS011;8002;51.196;7.010;2024-02-14T03:45:00;1.30;;;0.93;;
15799;SDS011;8002;51.196;7.010;2024-02-14T03:47:30;0.87;;;0.87;;
15799;SDS011;8002;51.196;7.010;2024-02-14T03:49:59;1.10;;;1.00;;
15799;SDS011;8002;51.196;7.010;2024-02-14T03:52:25;2.13;;;1.00;;
15799;SDS011;8002;51.196;7.010;2024-02-14T03:54:51;0.90;;;0.83;;
15799;SDS011;8002;51.196;7.010;2024-02-14T03:57:18;1.30;;;1.20;;
15799;SDS011;8002;51.196;7.010;2024-02-14T03:59:44;1.30;;;1.20;;
15799;SDS011;8002;51.196;7.010;2024-02-14T04:02:10;2.10;;;0.80;;
15799;SDS011;8002;51.196;7.010;2024-02-14T04:04:37;2.00;;;1.10;;
15799;SDS011;8002;51.196;7.010;2024-02-14T04:07:05;1.80;;;1.23;;
15799;SDS011;8002;51.196;7.010;2024-02-14T04:09:33;1.20;;;1.10;;
15799;SDS011;8002;51.196;7.010;2024-02-14T04:11:59;1.07;;;0.97;;
15799;SDS011;8002;51.196;7.010;2024-02-14T04:14:26;3.43;;;1.27;;
15799;SDS011;8002;51.196;7.010;2024-02-14T04:16:52;2.20;;;1.20;;
15799;SDS011;8002;51.196;7.010;2024-02-14T04:19:18;1.73;;;1.23;;
15799;SDS011;8002;51.196;7.010;2024-02-14T04:21:45;1.60;;;1.00;;
15799;SDS011;8002;51.196;7.010;2024-02-14T04:24:13;1.20;;;1.10;;
15799;SDS011;8002;51.196;7.010;2024-02-14T04:26:39;1.30;;;1.20;;
15799;SDS011;8002;51.196;7.010;2024-02-14T04:29:05;2.00;;;1.13;;
15799;SDS011;8002;51.196;7.010;2024-02-14T04:31:31;1.93;;;1.10;;
15799;SDS011;8002;51.196;7.010;2024-02-14T04:33:58;1.97;;;1.00;;
15799;SDS011;8002;51.196;7.010;2024-02-14T04:36:25;1.80;;;1.40;;
15799;SDS011;8002;51.196;7.010;2024-02-14T04:38:52;3.80;;;1.43;;
15799;SDS011;8002;51.196;7.010;2024-02-14T04:41:20;1.77;;;1.40;;
15799;SDS011;8002;51.196;7.010;2024-02-14T04:43:46;2.40;;;1.30;;
15799;SDS011;8002;51.196;7.010;2024-02-14T04:46:12;1.80;;;1.47;;
15799;SDS011;8002;51.196;7.010;2024-02-14T04:48:38;1.10;;;0.93;;
15799;SDS011;8002;51.196;7.010;2024-02-14T04:51:05;2.47;;;1.50;;
15799;SDS011;8002;51.196;7.010;2024-02-14T04:53:31;1.30;;;1.20;;
15799;SDS011;8002;51.196;7.010;2024-02-14T04:55:57;1.27;;;1.17;;
15799;SDS011;8002;51.196;7.010;2024-02-14T04:58:25;1.50;;;1.20;;
15799;SDS011;8002;51.196;7.010;2024-02-14T05:00:52;1.17;;;1.03;;
15799;SDS011;8002;51.196;7.010;2024-02-14T05:03:19;1.90;;;1.17;;
15799;SDS011;8002;51.196;7.010;2024-02-14T05:05:46;1.53;;;1.30;;
15799;SDS011;8002;51.196;7.010;2024-02-14T05:08:12;1.20;;;1.10;;
15799;SDS011;8002;51.196;7.010;2024-02-14T05:10:38;1.77;;;1.13;;
15799;SDS011;8002;51.196;7.010;2024-02-14T05:13:05;2.27;;;1.23;;
15799;SDS011;8002;51.196;7.010;2024-02-14T05:15:33;2.37;;;1.20;;
15799;SDS011;8002;51.196;7.010;2024-02-14T05:18:00;2.03;;;1.33;;
15799;SDS011;8002;51.196;7.010;2024-02-14T05:20:26;1.73;;;1.20;;
15799;SDS011;8002;51.196;7.010;2024-02-14T05:22:52;1.40;;;1.27;;
15799;SDS011;8002;51.196;7.010;2024-02-14T05:25:19;1.23;;;0.87;;
15799;SDS011;8002;51.196;7.010;2024-02-14T05:27:45;1.60;;;1.50;;
15799;SDS011;8002;51.196;7.010;2024-02-14T05:30:12;1.60;;;1.10;;
15799;SDS011;8002;51.196;7.010;2024-02-14T05:32:40;1.60;;;1.30;;
15799;SDS011;8002;51.196;7.010;2024-02-14T05:35:07;2.17;;;1.47;;
15799;SDS011;8002;51.196;7.010;2024-02-14T05:37:34;2.70;;;1.30;;
15799;SDS011;8002;51.196;7.010;2024-02-14T05:40:02;2.07;;;1.17;;
15799;SDS011;8002;51.196;7.010;2024-02-14T05:42:28;2.70;;;1.20;;
15799;SDS011;8002;51.196;7.010;2024-02-14T05:44:54;3.43;;;1.40;;
15799;SDS011;8002;51.196;7.010;2024-02-14T05:47:21;2.60;;;1.37;;
15799;SDS011;8002;51.196;7.010;2024-02-14T05:49:48;3.20;;;1.63;;
15799;SDS011;8002;51.196;7.010;2024-02-14T05:52:14;2.77;;;2.13;;
15799;SDS011;8002;51.196;7.010;2024-02-14T05:54:41;1.67;;;1.30;;
15799;SDS011;8002;51.196;7.010;2024-02-14T05:57:07;1.70;;;1.60;;
15799;SDS011;8002;51.196;7.010;2024-02-14T05:59:34;1.97;;;1.53;;
15799;SDS011;8002;51.196;7.010;2024-02-14T06:02:00;1.77;;;1.67;;
15799;SDS011;8002;51.196;7.010;2024-02-14T06:04:28;6.53;;;1.97;;
15799;SDS011;8002;51.196;7.010;2024-02-14T06:06:55;2.40;;;1.50;;
15799;SDS011;8002;51.196;7.010;2024-02-14T06:09:21;1.63;;;1.53;;
15799;SDS011;8002;51.196;7.010;2024-02-14T06:11:49;2.77;;;1.97;;
15799;SDS011;8002;51.196;7.010;2024-02-14T06:14:16;2.23;;;1.97;;
15799;SDS011;8002;51.196;7.010;2024-02-14T06:16:43;2.03;;;1.83;;
15799;SDS011;8002;51.196;7.010;2024-02-14T06:19:10;1.80;;;1.70;;
15799;SDS011;8002;51.196;7.010;2024-02-14T06:21:36;2.37;;;1.40;;
15799;SDS011;8002;51.196;7.010;2024-02-14T06:24:04;1.50;;;1.40;;
15799;SDS011;8002;51.196;7.010;2024-02-14T06:26:31;3.10;;;1.97;;
15799;SDS011;8002;51.196;7.010;2024-02-14T06:28:58;2.57;;;1.90;;
15799;SDS011;8002;51.196;7.010;2024-02-14T06:31:24;2.87;;;2.30;;
15799;SDS011;8002;51.196;7.010;2024-02-14T06:33:50;2.43;;;1.90;;
15799;SDS011;8002;51.196;7.010;2024-02-14T06:36:17;2.13;;;1.93;;
15799;SDS011;8002;51.196;7.010;2024-02-14T06:38:43;2.43;;;1.70;;
15799;SDS011;8002;51.196;7.010;2024-02-14T06:41:12;2.27;;;2.07;;
15799;SDS011;8002;51.196;7.010;2024-02-14T06:43:38;2.63;;;1.80;;
15799;SDS011;8002;51.196;7.010;2024-02-14T06:46:05;2.70;;;2.27;;
15799;SDS011;8002;51.196;7.010;2024-02-14T06:48:31;2.53;;;1.87;;
15799;SDS011;8002;51.196;7.010;2024-02-14T06:50:58;2.47;;;2.27;;
15799;SDS011;8002;51.196;7.010;2024-02-14T06:53:25;2.33;;;2.10;;
15799;SDS011;8002;51.196;7.010;2024-02-14T06:55:51;2.40;;;2.10;;
15799;SDS011;8002;51.196;7.010;2024-02-14T06:58:19;2.47;;;2.10;;
15799;SDS011;8002;51.196;7.010;2024-02-14T07:00:45;2.27;;;2.07;;
15799;SDS011;8002;51.196;7.010;2024-02-14T07:03:11;4.17;;;2.67;;
15799;SDS011;8002;51.196;7.010;2024-02-14T07:05:38;3.10;;;2.37;;
15799;SDS011;8002;51.196;7.010;2024-02-14T07:08:04;2.50;;;2.30;;
15799;SDS011;8002;51.196;7.010;2024-02-14T07:10:31;2.23;;;2.03;;
15799;SDS011;8002;51.196;7.010;2024-02-14T07:12:57;4.40;;;2.70;;
15799;SDS011;8002;51.196;7.010;2024-02-14T07:15:25;2.43;;;2.23;;
15799;SDS011;8002;51.196;7.010;2024-02-14T07:17:53;3.03;;;2.60;;
15799;SDS011;8002;51.196;7.010;2024-02-14T07:20:20;2.87;;;2.67;;
15799;SDS011;8002;51.196;7.010;2024-02-14T07:22:46;2.80;;;2.60;;
15799;SDS011;8002;51.196;7.010;2024-02-14T07:25:18;4.00;;;2.50;;
15799;SDS011;8002;51.196;7.010;2024-02-14T07:27:44;2.50;;;2.30;;
15799;SDS011;8002;51.196;7.010;2024-02-14T07:30:11;2.83;;;2.63;;
15799;SDS011;8002;51.196;7.010;2024-02-14T07:32:39;2.50;;;2.30;;
15799;SDS011;8002;51.196;7.010;2024-02-14T07:35:05;4.13;;;2.50;;
15799;SDS011;8002;51.196;7.010;2024-02-14T07:37:32;2.80;;;2.43;;
15799;SDS011;8002;51.196;7.010;2024-02-14T07:39:58;3.37;;;2.90;;
15799;SDS011;8002;51.196;7.010;2024-02-14T07:42:24;3.60;;;2.43;;
15799;SDS011;8002;51.196;7.010;2024-02-14T07:44:51;3.63;;;3.10;;
15799;SDS011;8002;51.196;7.010;2024-02-14T07:47:17;3.30;;;2.63;;
15799;SDS011;8002;51.196;7.010;2024-02-14T07:49:45;4.10;;;3.10;;
15799;SDS011;8002;51.196;7.010;2024-02-14T07:52:12;4.50;;;3.10;;
15799;SDS011;8002;51.196;7.010;2024-02-14T07:54:38;3.10;;;2.73;;
15799;SDS011;8002;51.196;7.010;2024-02-14T07:57:04;4.23;;;2.90;;
15799;SDS011;8002;51.196;7.010;2024-02-14T07:59:31;4.60;;;2.80;;
15799;SDS011;8002;51.196;7.010;2024-02-14T08:01:58;3.10;;;2.80;;
15799;SDS011;8002;51.196;7.010;2024-02-14T08:04:24;2.73;;;2.47;;
15799;SDS011;8002;51.196;7.010;2024-02-14T08:06:52;3.07;;;2.50;;
15799;SDS011;8002;51.196;7.010;2024-02-14T08:09:18;4.00;;;2.60;;
15799;SDS011;8002;51.196;7.010;2024-02-14T08:11:44;3.20;;;2.90;;
15799;SDS011;8002;51.196;7.010;2024-02-14T08:14:11;3.47;;;2.37;;
15799;SDS011;8002;51.196;7.010;2024-02-14T08:16:37;6.13;;;5.00;;
15799;SDS011;8002;51.196;7.010;2024-02-14T08:19:04;8.20;;;5.20;;
15799;SDS011;8002;51.196;7.010;2024-02-14T08:21:30;4.13;;;2.80;;
15799;SDS011;8002;51.196;7.010;2024-02-14T08:23:58;7.40;;;5.40;;
15799;SDS011;8002;51.196;7.010;2024-02-14T08:26:24;3.27;;;2.50;;
15799;SDS011;8002;51.196;7.010;2024-02-14T08:28:51;11.30;;;7.50;;
15799;SDS011;8002;51.196;7.010;2024-02-14T08:31:17;4.27;;;3.87;;
15799;SDS011;8002;51.196;7.010;2024-02-14T08:33:43;2.77;;;2.57;;
15799;SDS011;8002;51.196;7.010;2024-02-14T08:36:10;4.20;;;3.90;;
15799;SDS011;8002;51.196;7.010;2024-02-14T08:38:36;3.40;;;3.00;;
15799;SDS011;8002;51.196;7.010;2024-02-14T08:41:04;3.67;;;2.77;;
15799;SDS011;8002;51.196;7.010;2024-02-14T08:43:30;2.90;;;2.60;;
15799;SDS011;8002;51.196;7.010;2024-02-14T08:45:58;3.53;;;2.90;;
15799;SDS011;8002;51.196;7.010;2024-02-14T08:48:25;4.17;;;2.97;;
15799;SDS011;8002;51.196;7.010;2024-02-14T08:50:54;3.60;;;3.30;;
15799;SDS011;8002;51.196;7.010;2024-02-14T08:53:20;5.73;;;4.30;;
15799;SDS011;8002;51.196;7.010;2024-02-14T08:55:47;4.77;;;3.33;;
15799;SDS011;8002;51.196;7.010;2024-02-14T08:58:14;3.73;;;3.40;;
15799;SDS011;8002;51.196;7.010;2024-02-14T09:00:42;3.07;;;2.83;;
15799;SDS011;8002;51.196;7.010;2024-02-14T09:03:08;3.50;;;3.20;;
15799;SDS011;8002;51.196;7.010;2024-02-14T09:05:34;4.33;;;3.10;;
15799;SDS011;8002;51.196;7.010;2024-02-14T09:08:02;3.40;;;3.10;;
15799;SDS011;8002;51.196;7.010;2024-02-14T09:10:28;3.57;;;3.27;;
15799;SDS011;8002;51.196;7.010;2024-02-14T09:12:55;4.00;;;2.57;;
15799;SDS011;8002;51.196;7.010;2024-02-14T09:15:22;3.20;;;2.53;;
15799;SDS011;8002;51.196;7.010;2024-02-14T09:17:49;3.57;;;2.47;;
15799;SDS011;8002;51.196;7.010;2024-02-14T09:20:17;3.77;;;2.70;;
15799;SDS011;8002;51.196;7.010;2024-02-14T09:22:44;2.97;;;2.67;;
15799;SDS011;8002;51.196;7.010;2024-02-14T09:25:10;2.80;;;2.60;;
15799;SDS011;8002;51.196;7.010;2024-02-14T09:27:36;5.50;;;3.33;;
15799;SDS011;8002;51.196;7.010;2024-02-14T09:30:03;3.37;;;2.33;;
15799;SDS011;8002;51.196;7.010;2024-02-14T09:32:32;3.10;;;2.80;;
15799;SDS011;8002;51.196;7.010;2024-02-14T09:34:59;3.27;;;2.87;;
15799;SDS011;8002;51.196;7.010;2024-02-14T09:37:25;3.17;;;2.37;;
15799;SDS011;8002;51.196;7.010;2024-02-14T09:39:51;3.30;;;2.70;;
15799;SDS011;8002;51.196;7.010;2024-02-14T09:42:19;2.50;;;2.30;;
15799;SDS011;8002;51.196;7.010;2024-02-14T09:44:49;3.27;;;2.77;;
15799;SDS011;8002;51.196;7.010;2024-02-14T09:47:17;4.10;;;2.33;;
15799;SDS011;8002;51.196;7.010;2024-02-14T09:49:46;3.00;;;2.13;;
15799;SDS011;8002;51.196;7.010;2024-02-14T09:52:13;2.60;;;2.40;;
15799;SDS011;8002;51.196;7.010;2024-02-14T09:54:40;2.80;;;2.30;;
15799;SDS011;8002;51.196;7.010;2024-02-14T09:57:06;2.63;;;2.20;;
15799;SDS011;8002;51.196;7.010;2024-02-14T09:59:33;3.57;;;2.37;;
15799;SDS011;8002;51.196;7.010;2024-02-14T10:02:01;2.93;;;2.33;;
15799;SDS011;8002;51.196;7.010;2024-02-14T10:10:35;2.53;;;2.20;;
15799;SDS011;8002;51.196;7.010;2024-02-14T10:13:03;2.50;;;2.07;;
15799;SDS011;8002;51.196;7.010;2024-02-14T10:15:29;2.40;;;2.10;;
15799;SDS011;8002;51.196;7.010;2024-02-14T10:17:57;4.37;;;2.87;;
15799;SDS011;8002;51.196;7.010;2024-02-14T10:20:23;3.13;;;2.07;;
15799;SDS011;8002;51.196;7.010;2024-02-14T10:22:51;2.93;;;2.40;;
15799;SDS011;8002;51.196;7.010;2024-02-14T10:25:17;3.00;;;2.40;;
15799;SDS011;8002;51.196;7.010;2024-02-14T10:27:46;2.03;;;1.80;;
15799;SDS011;8002;51.196;7.010;2024-02-14T10:30:13;3.00;;;1.80;;
15799;SDS011;8002;51.196;7.010;2024-02-14T10:32:39;3.50;;;1.87;;
15799;SDS011;8002;51.196;7.010;2024-02-14T10:35:06;3.30;;;1.73;;
15799;SDS011;8002;51.196;7.010;2024-02-14T10:37:34;2.90;;;1.80;;
15799;SDS011;8002;51.196;7.010;2024-02-14T10:40:00;2.90;;;1.70;;
15799;SDS011;8002;51.196;7.010;2024-02-14T10:42:28;1.90;;;1.60;;
15799;SDS011;8002;51.196;7.010;2024-02-14T10:44:55;2.10;;;1.50;;
15799;SDS011;8002;51.196;7.010;2024-02-14T10:47:23;2.93;;;1.77;;
15799;SDS011;8002;51.196;7.010;2024-02-14T10:49:50;1.43;;;1.33;;
15799;SDS011;8002;51.196;7.010;2024-02-14T10:52:18;3.80;;;1.40;;
15799;SDS011;8002;51.196;7.010;2024-02-14T10:54:46;2.63;;;1.33;;
15799;SDS011;8002;51.196;7.010;2024-02-14T10:57:14;1.83;;;1.30;;
15799;SDS011;8002;51.196;7.010;2024-02-14T10:59:42;3.50;;;1.37;;
15799;SDS011;8002;51.196;7.010;2024-02-14T11:02:11;1.93;;;1.17;;
15799;SDS011;8002;51.196;7.010;2024-02-14T11:04:38;3.43;;;1.10;;
15799;SDS011;8002;51.196;7.010;2024-02-14T11:07:08;1.33;;;1.03;;
15799;SDS011;8002;51.196;7.010;2024-02-14T11:09:35;2.70;;;1.20;;
15799;SDS011;8002;51.196;7.010;2024-02-14T11:12:02;3.50;;;1.47;;
15799;SDS011;8002;51.196;7.010;2024-02-14T11:14:29;2.80;;;0.93;;
15799;SDS011;8002;51.196;7.010;2024-02-14T11:16:56;4.63;;;1.20;;
15799;SDS011;8002;51.196;7.010;2024-02-14T11:19:29;3.60;;;1.17;;
15799;SDS011;8002;51.196;7.010;2024-02-14T11:21:58;3.37;;;1.10;;
15799;SDS011;8002;51.196;7.010;2024-02-14T11:24:27;2.30;;;1.20;;
15799;SDS011;8002;51.196;7.010;2024-02-14T11:26:54;3.50;;;1.00;;
15799;SDS011;8002;51.196;7.010;2024-02-14T11:29:21;2.30;;;1.77;;
15799;SDS011;8002;51.196;7.010;2024-02-14T11:31:47;2.57;;;1.10;;
15799;SDS011;8002;51.196;7.010;2024-02-14T11:34:15;3.00;;;1.20;;
15799;SDS011;8002;51.196;7.010;2024-02-14T11:36:43;3.43;;;1.57;;
15799;SDS011;8002;51.196;7.010;2024-02-14T11:39:10;5.03;;;1.73;;
15799;SDS011;8002;51.196;7.010;2024-02-14T11:41:37;1.63;;;1.43;;
15799;SDS011;8002;51.196;7.010;2024-02-14T11:44:04;3.53;;;1.57;;
15799;SDS011;8002;51.196;7.010;2024-02-14T11:46:30;2.83;;;1.47;;
15799;SDS011;8002;51.196;7.010;2024-02-14T11:48:57;2.30;;;1.50;;
15799;SDS011;8002;51.196;7.010;2024-02-14T11:51:25;2.83;;;1.40;;
15799;SDS011;8002;51.196;7.010;2024-02-14T11:53:53;2.43;;;1.60;;
15799;SDS011;8002;51.196;7.010;2024-02-14T11:56:20;2.00;;;1.50;;
15799;SDS011;8002;51.196;7.010;2024-02-14T11:58:47;4.70;;;1.67;;
15799;SDS011;8002;51.196;7.010;2024-02-14T12:01:15;2.30;;;1.47;;
15799;SDS011;8002;51.196;7.010;2024-02-14T12:03:42;3.70;;;1.97;;
15799;SDS011;8002;51.196;7.010;2024-02-14T12:06:09;4.67;;;1.37;;
15799;SDS011;8002;51.196;7.010;2024-02-14T12:08:36;5.17;;;1.80;;
15799;SDS011;8002;51.196;7.010;2024-02-14T12:11:04;3.10;;;1.77;;
15799;SDS011;8002;51.196;7.010;2024-02-14T12:13:30;2.87;;;1.47;;
15799;SDS011;8002;51.196;7.010;2024-02-14T12:15:58;3.43;;;1.53;;
15799;SDS011;8002;51.196;7.010;2024-02-14T12:18:25;2.97;;;1.20;;
15799;SDS011;8002;51.196;7.010;2024-02-14T12:20:52;4.50;;;2.13;;
15799;SDS011;8002;51.196;7.010;2024-02-14T12:23:29;2.00;;;1.33;;
15799;SDS011;8002;51.196;7.010;2024-02-14T12:26:00;2.17;;;1.20;;
15799;SDS011;8002;51.196;7.010;2024-02-14T12:28:28;2.73;;;1.43;;
15799;SDS011;8002;51.196;7.010;2024-02-14T12:30:55;3.40;;;1.00;;
15799;SDS011;8002;51.196;7.010;2024-02-14T12:33:22;3.93;;;1.97;;
15799;SDS011;8002;51.196;7.010;2024-02-14T12:35:49;3.03;;;1.40;;
15799;SDS011;8002;51.196;7.010;2024-02-14T12:38:17;2.47;;;1.37;;
15799;SDS011;8002;51.196;7.010;2024-02-14T12:40:43;4.50;;;1.67;;
15799;SDS011;8002;51.196;7.010;2024-02-14T12:43:10;2.40;;;1.53;;
15799;SDS011;8002;51.196;7.010;2024-02-14T12:45:38;2.20;;;1.60;;
15799;SDS011;8002;51.196;7.010;2024-02-14T12:48:05;5.23;;;1.60;;
15799;SDS011;8002;51.196;7.010;2024-02-14T12:50:33;3.43;;;1.77;;
15799;SDS011;8002;51.196;7.010;2024-02-14T12:52:59;3.33;;;1.53;;
15799;SDS011;8002;51.196;7.010;2024-02-14T12:55:26;2.70;;;1.50;;
15799;SDS011;8002;51.196;7.010;2024-02-14T12:57:53;3.70;;;1.70;;
15799;SDS011;8002;51.196;7.010;2024-02-14T13:00:20;2.50;;;1.53;;
15799;SDS011;8002;51.196;7.010;2024-02-14T13:02:48;1.70;;;1.43;;
15799;SDS011;8002;51.196;7.010;2024-02-14T13:05:14;4.40;;;1.90;;
15799;SDS011;8002;51.196;7.010;2024-02-14T13:07:41;2.37;;;1.40;;
15799;SDS011;8002;51.196;7.010;2024-02-14T13:10:07;3.13;;;1.83;;
15799;SDS011;8002;51.196;7.010;2024-02-14T13:12:35;3.07;;;1.60;;
15799;SDS011;8002;51.196;7.010;2024-02-14T13:15:02;2.17;;;1.83;;
15799;SDS011;8002;51.196;7.010;2024-02-14T13:17:28;1.50;;;1.40;;
15799;SDS011;8002;51.196;7.010;2024-02-14T13:19:56;2.20;;;1.30;;
15799;SDS011;8002;51.196;7.010;2024-02-14T13:22:24;1.60;;;1.47;;
15799;SDS011;8002;51.196;7.010;2024-02-14T13:24:51;2.13;;;1.47;;
15799;SDS011;8002;51.196;7.010;2024-02-14T13:27:17;1.40;;;1.30;;
15799;SDS011;8002;51.196;7.010;2024-02-14T13:29:46;1.53;;;1.17;;
15799;SDS011;8002;51.196;7.010;2024-02-14T13:32:12;2.30;;;1.33;;
15799;SDS011;8002;51.196;7.010;2024-02-14T13:34:39;1.90;;;1.30;;
15799;SDS011;8002;51.196;7.010;2024-02-14T13:37:06;2.30;;;1.30;;
15799;SDS011;8002;51.196;7.010;2024-02-14T13:39:34;2.60;;;1.30;;
15799;SDS011;8002;51.196;7.010;2024-02-14T13:42:00;1.80;;;1.70;;
15799;SDS011;8002;51.196;7.010;2024-02-14T13:44:27;2.57;;;1.47;;
15799;SDS011;8002;51.196;7.010;2024-02-14T13:46:53;1.33;;;1.23;;
15799;SDS011;8002;51.196;7.010;2024-02-14T13:49:19;2.10;;;1.53;;
15799;SDS011;8002;51.196;7.010;2024-02-14T13:51:47;2.67;;;1.80;;
15799;SDS011;8002;51.196;7.010;2024-02-14T13:54:16;2.30;;;1.40;;
15799;SDS011;8002;51.196;7.010;2024-02-14T13:56:43;1.67;;;1.50;;
15799;SDS011;8002;51.196;7.010;2024-02-14T13:59:09;2.10;;;1.90;;
15799;SDS011;8002;51.196;7.010;2024-02-14T14:01:36;3.30;;;2.00;;
15799;SDS011;8002;51.196;7.010;2024-02-14T14:04:03;2.63;;;1.70;;
15799;SDS011;8002;51.196;7.010;2024-02-14T14:06:29;2.93;;;2.40;;
15799;SDS011;8002;51.196;7.010;2024-02-14T14:08:56;3.43;;;2.20;;
15799;SDS011;8002;51.196;7.010;2024-02-14T14:11:23;2.30;;;1.97;;
15799;SDS011;8002;51.196;7.010;2024-02-14T14:13:49;2.43;;;2.20;;
15799;SDS011;8002;51.196;7.010;2024-02-14T14:16:16;2.93;;;2.40;;
15799;SDS011;8002;51.196;7.010;2024-02-14T14:18:42;3.80;;;2.40;;
15799;SDS011;8002;51.196;7.010;2024-02-14T14:21:08;2.30;;;2.10;;
15799;SDS011;8002;51.196;7.010;2024-02-14T14:23:35;2.70;;;2.00;;
15799;SDS011;8002;51.196;7.010;2024-02-14T14:26:01;3.60;;;2.23;;
15799;SDS011;8002;51.196;7.010;2024-02-14T14:28:29;2.73;;;1.87;;
15799;SDS011;8002;51.196;7.010;2024-02-14T14:30:57;3.00;;;1.90;;
15799;SDS011;8002;51.196;7.010;2024-02-14T14:33:25;2.67;;;2.00;;
15799;SDS011;8002;51.196;7.010;2024-02-14T14:35:52;3.17;;;2.00;;
15799;SDS011;8002;51.196;7.010;2024-02-14T14:38:19;2.60;;;2.40;;
15799;SDS011;8002;51.196;7.010;2024-02-14T14:40:46;1.90;;;1.67;;
15799;SDS011;8002;51.196;7.010;2024-02-14T14:43:12;1.70;;;1.60;;
15799;SDS011;8002;51.196;7.010;2024-02-14T14:45:40;1.93;;;1.73;;
15799;SDS011;8002;51.196;7.010;2024-02-14T14:48:07;3.03;;;1.70;;
15799;SDS011;8002;51.196;7.010;2024-02-14T14:50:34;2.23;;;1.50;;
15799;SDS011;8002;51.196;7.010;2024-02-14T14:53:00;3.03;;;1.50;;
15799;SDS011;8002;51.196;7.010;2024-02-14T14:55:27;1.77;;;1.67;;
15799;SDS011;8002;51.196;7.010;2024-02-14T14:58:12;2.13;;;2.00;;
15799;SDS011;8002;51.196;7.010;2024-02-14T15:00:38;2.30;;;2.10;;
15799;SDS011;8002;51.196;7.010;2024-02-14T15:03:07;2.70;;;2.00;;
15799;SDS011;8002;51.196;7.010;2024-02-14T15:05:33;2.47;;;2.27;;